sensor_id;sensor_type;location;lat;lon;timestamp;pressure;altitude;pressure_sealevel;temperature;humidity
38780;BME280;29273;49.962;9.768;2023-01-30T00:01:29;100355.78;;;3.34;51.63
38780;BME280;29273;49.962;9.768;2023-01-30T00:03:55;100344.91;;;3.39;51.68
38780;BME280;29273;49.962;9.768;2023-01-30T00:06:21;100332.06;;;3.46;51.53
38780;BME280;29273;49.962;9.768;2023-01-30T00:08:47;100326.56;;;3.49;51.21
38780;BME280;29273;49.962;9.768;2023-01-30T00:11:13;100328.59;;;3.55;51.29
38780;BME280;29273;49.962;9.768;2023-01-30T00:13:40;100328.31;;;3.58;51.18
38780;BME280;29273;49.962;9.768;2023-01-30T00:16:06;100340.97;;;3.63;51.00
38780;BME280;29273;49.962;9.768;2023-01-30T00:18:34;100341.53;;;3.66;51.18
38780;BME280;29273;49.962;9.768;2023-01-30T00:21:03;100341.94;;;3.72;51.13
38780;BME280;29273;49.962;9.768;2023-01-30T00:23:30;100331.31;;;3.73;51.32
38780;BME280;29273;49.962;9.768;2023-01-30T00:25:56;100321.34;;;3.77;51.51
38780;BME280;29273;49.962;9.768;2023-01-30T00:28:22;100313.22;;;3.80;51.55
38780;BME280;29273;49.962;9.768;2023-01-30T00:30:48;100299.78;;;3.83;51.45
38780;BME280;29273;49.962;9.768;2023-01-30T00:33:16;100300.50;;;3.85;51.33
38780;BME280;29273;49.962;9.768;2023-01-30T00:35:43;100304.31;;;3.91;51.54
38780;BME280;29273;49.962;9.768;2023-01-30T00:38:08;100298.13;;;3.92;51.58
38780;BME280;29273;49.962;9.768;2023-01-30T00:40:34;100300.44;;;3.95;51.53
38780;BME280;29273;49.962;9.768;2023-01-30T00:43:00;100294.91;;;3.98;51.65
38780;BME280;29273;49.962;9.768;2023-01-30T00:45:44;100302.63;;;3.99;51.62
38780;BME280;29273;49.962;9.768;2023-01-30T00:48:29;100290.34;;;4.00;51.68
38780;BME280;29273;49.962;9.768;2023-01-30T00:50:55;100282.34;;;4.01;51.87
38780;BME280;29273;49.962;9.768;2023-01-30T00:53:20;100278.72;;;4.02;51.79
38780;BME280;29273;49.962;9.768;2023-01-30T00:55:49;100265.19;;;4.07;52.09
38780;BME280;29273;49.962;9.768;2023-01-30T00:58:15;100254.19;;;4.03;52.52
38780;BME280;29273;49.962;9.768;2023-01-30T01:00:41;100245.47;;;4.03;52.52
38780;BME280;29273;49.962;9.768;2023-01-30T01:03:07;100247.13;;;4.04;52.75
38780;BME280;29273;49.962;9.768;2023-01-30T01:05:32;100244.50;;;4.04;52.80
38780;BME280;29273;49.962;9.768;2023-01-30T01:07:57;100227.84;;;4.05;52.66
38780;BME280;29273;49.962;9.768;2023-01-30T01:10:23;100207.81;;;4.04;52.98
38780;BME280;29273;49.962;9.768;2023-01-30T01:12:49;100206.16;;;4.03;53.14
38780;BME280;29273;49.962;9.768;2023-01-30T01:15:20;100226.16;;;4.04;53.26
38780;BME280;29273;49.962;9.768;2023-01-30T01:17:47;100224.69;;;4.01;53.28
38780;BME280;29273;49.962;9.768;2023-01-30T01:20:13;100208.63;;;4.04;53.50
38780;BME280;29273;49.962;9.768;2023-01-30T01:22:39;100197.50;;;4.02;53.86
38780;BME280;29273;49.962;9.768;2023-01-30T01:25:05;100185.19;;;4.03;53.46
38780;BME280;29273;49.962;9.768;2023-01-30T01:27:31;100200.94;;;4.03;53.89
38780;BME280;29273;49.962;9.768;2023-01-30T01:29:56;100208.78;;;4.03;53.92
38780;BME280;29273;49.962;9.768;2023-01-30T01:32:22;100199.16;;;4.03;53.88
38780;BME280;29273;49.962;9.768;2023-01-30T01:34:48;100199.97;;;4.04;54.20
38780;BME280;29273;49.962;9.768;2023-01-30T01:37:13;100193.75;;;4.05;53.98
38780;BME280;29273;49.962;9.768;2023-01-30T01:39:41;100187.53;;;4.06;54.21
38780;BME280;29273;49.962;9.768;2023-01-30T01:42:28;100175.78;;;4.10;53.97
38780;BME280;29273;49.962;9.768;2023-01-30T01:48:04;100187.09;;;4.11;53.77
38780;BME280;29273;49.962;9.768;2023-01-30T01:50:39;100177.97;;;4.15;53.92
38780;BME280;29273;49.962;9.768;2023-01-30T01:53:07;100176.44;;;4.12;54.33
38780;BME280;29273;49.962;9.768;2023-01-30T01:55:34;100156.28;;;4.13;54.24
38780;BME280;29273;49.962;9.768;2023-01-30T01:58:13;100166.34;;;4.17;53.82
38780;BME280;29273;49.962;9.768;2023-01-30T02:00:40;100154.50;;;4.13;54.78
38780;BME280;29273;49.962;9.768;2023-01-30T02:03:10;100149.63;;;4.18;54.53
38780;BME280;29273;49.962;9.768;2023-01-30T02:05:40;100140.78;;;4.19;54.57
38780;BME280;29273;49.962;9.768;2023-01-30T02:08:13;100146.72;;;4.21;54.28
38780;BME280;29273;49.962;9.768;2023-01-30T02:11:10;100161.44;;;4.22;54.19
38780;BME280;29273;49.962;9.768;2023-01-30T02:13:37;100173.09;;;4.20;54.88
38780;BME280;29273;49.962;9.768;2023-01-30T02:16:05;100175.22;;;4.24;54.69
38780;BME280;29273;49.962;9.768;2023-01-30T02:18:33;100160.19;;;4.26;54.63
38780;BME280;29273;49.962;9.768;2023-01-30T02:21:39;100152.31;;;4.26;54.09
38780;BME280;29273;49.962;9.768;2023-01-30T02:27:14;100146.31;;;4.34;54.48
38780;BME280;29273;49.962;9.768;2023-01-30T02:30:09;100137.47;;;4.35;54.26
38780;BME280;29273;49.962;9.768;2023-01-30T02:33:33;100128.31;;;4.39;54.48
38780;BME280;29273;49.962;9.768;2023-01-30T02:35:41;100115.03;;;4.41;54.58
38780;BME280;29273;49.962;9.768;2023-01-30T02:38:29;100106.06;;;4.43;54.39
38780;BME280;29273;49.962;9.768;2023-01-30T02:44:16;100085.91;;;4.44;54.54
38780;BME280;29273;49.962;9.768;2023-01-30T02:46:52;100097.59;;;4.50;54.52
38780;BME280;29273;49.962;9.768;2023-01-30T02:51:49;100084.28;;;4.51;55.35
38780;BME280;29273;49.962;9.768;2023-01-30T02:54:15;100094.63;;;4.53;55.24
38780;BME280;29273;49.962;9.768;2023-01-30T02:56:47;100094.97;;;4.58;54.62
38780;BME280;29273;49.962;9.768;2023-01-30T02:59:17;100106.97;;;4.60;55.10
38780;BME280;29273;49.962;9.768;2023-01-30T03:02:09;100105.84;;;4.63;54.70
38780;BME280;29273;49.962;9.768;2023-01-30T03:07:23;100094.88;;;4.68;54.49
38780;BME280;29273;49.962;9.768;2023-01-30T03:10:19;100107.19;;;4.67;54.54
38780;BME280;29273;49.962;9.768;2023-01-30T03:13:04;100085.06;;;4.70;54.53
38780;BME280;29273;49.962;9.768;2023-01-30T03:15:37;100089.16;;;4.72;54.90
38780;BME280;29273;49.962;9.768;2023-01-30T03:18:06;100078.81;;;4.71;55.12
38780;BME280;29273;49.962;9.768;2023-01-30T03:20:36;100088.69;;;4.77;54.74
38780;BME280;29273;49.962;9.768;2023-01-30T03:23:03;100091.47;;;4.75;55.08
38780;BME280;29273;49.962;9.768;2023-01-30T03:25:28;100085.25;;;4.76;54.79
38780;BME280;29273;49.962;9.768;2023-01-30T03:27:54;100080.84;;;4.77;55.09
38780;BME280;29273;49.962;9.768;2023-01-30T03:30:24;100067.56;;;4.78;54.83
38780;BME280;29273;49.962;9.768;2023-01-30T03:32:52;100055.41;;;4.77;55.03
38780;BME280;29273;49.962;9.768;2023-01-30T03:35:18;100063.28;;;4.77;55.17
38780;BME280;29273;49.962;9.768;2023-01-30T03:37:44;100064.78;;;4.80;54.98
38780;BME280;29273;49.962;9.768;2023-01-30T03:40:15;100070.53;;;4.84;54.70
38780;BME280;29273;49.962;9.768;2023-01-30T03:42:41;100063.78;;;4.81;55.22
38780;BME280;29273;49.962;9.768;2023-01-30T03:45:09;100071.50;;;4.82;55.15
38780;BME280;29273;49.962;9.768;2023-01-30T03:47:35;100068.06;;;4.82;55.53
38780;BME280;29273;49.962;9.768;2023-01-30T03:50:01;100067.91;;;4.84;55.20
38780;BME280;29273;49.962;9.768;2023-01-30T03:52:27;100063.31;;;4.86;55.19
38780;BME280;29273;49.962;9.768;2023-01-30T03:54:53;100064.31;;;4.85;55.21
38780;BME280;29273;49.962;9.768;2023-01-30T03:57:18;100068.41;;;4.87;55.30
38780;BME280;29273;49.962;9.768;2023-01-30T03:59:44;100056.94;;;4.88;55.29
38780;BME280;29273;49.962;9.768;2023-01-30T04:02:12;100044.63;;;4.89;55.20
38780;BME280;29273;49.962;9.768;2023-01-30T04:04:40;100043.81;;;4.88;55.39
38780;BME280;29273;49.962;9.768;2023-01-30T04:07:08;100041.19;;;4.88;55.80
38780;BME280;29273;49.962;9.768;2023-01-30T04:09:34;100037.56;;;4.89;55.53
38780;BME280;29273;49.962;9.768;2023-01-30T04:12:00;100022.66;;;4.90;55.47
38780;BME280;29273;49.962;9.768;2023-01-30T04:14:31;100026.91;;;4.91;55.39
38780;BME280;29273;49.962;9.768;2023-01-30T04:17:13;100039.38;;;4.89;55.39
38780;BME280;29273;49.962;9.768;2023-01-30T04:19:57;100030.38;;;4.91;55.47
38780;BME280;29273;49.962;9.768;2023-01-30T04:22:22;100027.56;;;4.93;55.43
38780;BME280;29273;49.962;9.768;2023-01-30T04:24:48;100019.53;;;4.94;55.46
38780;BME280;29273;49.962;9.768;2023-01-30T04:27:13;100021.03;;;4.97;55.56
38780;BME280;29273;49.962;9.768;2023-01-30T04:29:55;100022.69;;;4.98;55.54
38780;BME280;29273;49.962;9.768;2023-01-30T04:32:21;100019.88;;;4.99;55.45
38780;BME280;29273;49.962;9.768;2023-01-30T04:34:47;100018.75;;;5.02;55.42
38780;BME280;29273;49.962;9.768;2023-01-30T04:37:13;100015.16;;;5.03;55.37
38780;BME280;29273;49.962;9.768;2023-01-30T04:39:39;100006.13;;;5.06;55.24
38780;BME280;29273;49.962;9.768;2023-01-30T04:42:04;100000.88;;;5.06;55.34
38780;BME280;29273;49.962;9.768;2023-01-30T04:44:36;100002.22;;;5.10;55.45
38780;BME280;29273;49.962;9.768;2023-01-30T04:47:10;99993.50;;;5.09;55.59
38780;BME280;29273;49.962;9.768;2023-01-30T04:49:35;99976.59;;;5.12;55.33
38780;BME280;29273;49.962;9.768;2023-01-30T04:52:02;99968.41;;;5.15;55.28
38780;BME280;29273;49.962;9.768;2023-01-30T04:54:28;99982.19;;;5.17;55.47
38780;BME280;29273;49.962;9.768;2023-01-30T04:56:53;99970.72;;;5.18;55.50
38780;BME280;29273;49.962;9.768;2023-01-30T04:59:19;99974.00;;;5.20;55.18
38780;BME280;29273;49.962;9.768;2023-01-30T05:01:46;99972.84;;;5.23;55.01
38780;BME280;29273;49.962;9.768;2023-01-30T05:04:13;99964.97;;;5.23;55.09
38780;BME280;29273;49.962;9.768;2023-01-30T05:06:38;99952.66;;;5.23;55.19
38780;BME280;29273;49.962;9.768;2023-01-30T05:09:04;99944.13;;;5.21;55.28
38780;BME280;29273;49.962;9.768;2023-01-30T05:11:32;99942.97;;;5.24;55.05
38780;BME280;29273;49.962;9.768;2023-01-30T05:13:58;99942.97;;;5.24;55.01
38780;BME280;29273;49.962;9.768;2023-01-30T05:16:24;99939.53;;;5.23;55.04
38780;BME280;29273;49.962;9.768;2023-01-30T05:18:50;99935.09;;;5.24;55.05
38780;BME280;29273;49.962;9.768;2023-01-30T05:21:16;99930.00;;;5.22;55.13
38780;BME280;29273;49.962;9.768;2023-01-30T05:23:42;99919.84;;;5.19;55.43
38780;BME280;29273;49.962;9.768;2023-01-30T05:26:08;99915.41;;;5.19;55.22
38780;BME280;29273;49.962;9.768;2023-01-30T05:28:34;99930.16;;;5.21;55.25
38780;BME280;29273;49.962;9.768;2023-01-30T05:31:01;99926.75;;;5.20;55.31
38780;BME280;29273;49.962;9.768;2023-01-30T05:33:27;99924.09;;;5.20;55.25
38780;BME280;29273;49.962;9.768;2023-01-30T05:35:52;99919.34;;;5.15;55.52
38780;BME280;29273;49.962;9.768;2023-01-30T05:38:18;99925.41;;;5.16;55.53
38780;BME280;29273;49.962;9.768;2023-01-30T05:40:43;99935.91;;;5.16;55.63
38780;BME280;29273;49.962;9.768;2023-01-30T05:43:09;99927.38;;;5.14;55.72
38780;BME280;29273;49.962;9.768;2023-01-30T05:45:35;99932.47;;;5.15;55.67
38780;BME280;29273;49.962;9.768;2023-01-30T05:48:01;99934.28;;;5.15;55.57
38780;BME280;29273;49.962;9.768;2023-01-30T05:50:27;99939.53;;;5.15;55.69
38780;BME280;29273;49.962;9.768;2023-01-30T05:52:53;99926.25;;;5.16;55.69
38780;BME280;29273;49.962;9.768;2023-01-30T05:55:18;99933.28;;;5.16;56.02
38780;BME280;29273;49.962;9.768;2023-01-30T05:57:44;99939.53;;;5.15;55.64
38780;BME280;29273;49.962;9.768;2023-01-30T06:00:09;99930.81;;;5.14;56.19
38780;BME280;29273;49.962;9.768;2023-01-30T06:02:38;99928.34;;;5.13;55.89
38780;BME280;29273;49.962;9.768;2023-01-30T06:05:04;99934.13;;;5.16;56.21
38780;BME280;29273;49.962;9.768;2023-01-30T06:07:30;99926.56;;;5.13;56.37
38780;BME280;29273;49.962;9.768;2023-01-30T06:09:56;99930.31;;;5.11;56.78
38780;BME280;29273;49.962;9.768;2023-01-30T06:12:21;99919.66;;;5.12;56.38
38780;BME280;29273;49.962;9.768;2023-01-30T06:14:47;99919.66;;;5.12;56.37
38780;BME280;29273;49.962;9.768;2023-01-30T06:17:12;99911.31;;;5.09;56.49
38780;BME280;29273;49.962;9.768;2023-01-30T06:19:38;99900.97;;;5.07;56.93
38780;BME280;29273;49.962;9.768;2023-01-30T06:22:03;99913.28;;;5.07;57.03
38780;BME280;29273;49.962;9.768;2023-01-30T06:24:29;99903.25;;;5.02;57.37
38780;BME280;29273;49.962;9.768;2023-01-30T06:26:54;99910.97;;;5.04;57.10
38780;BME280;29273;49.962;9.768;2023-01-30T06:29:20;99903.41;;;5.00;57.41
38780;BME280;29273;49.962;9.768;2023-01-30T06:31:46;99885.84;;;5.01;57.19
38780;BME280;29273;49.962;9.768;2023-01-30T06:34:11;99875.34;;;5.01;57.15
38780;BME280;29273;49.962;9.768;2023-01-30T06:36:37;99886.69;;;5.02;57.26
38780;BME280;29273;49.962;9.768;2023-01-30T06:39:03;99886.69;;;5.02;57.13
38780;BME280;29273;49.962;9.768;2023-01-30T06:41:28;99885.84;;;5.01;57.19
38780;BME280;29273;49.962;9.768;2023-01-30T06:43:54;99885.69;;;5.03;57.25
38780;BME280;29273;49.962;9.768;2023-01-30T06:46:20;99888.16;;;5.04;57.29
38780;BME280;29273;49.962;9.768;2023-01-30T06:48:45;99897.53;;;5.07;57.34
38780;BME280;29273;49.962;9.768;2023-01-30T06:51:11;99859.94;;;5.06;57.29
38780;BME280;29273;49.962;9.768;2023-01-30T06:53:36;99873.56;;;5.10;57.14
38780;BME280;29273;49.962;9.768;2023-01-30T06:56:02;99870.94;;;5.10;57.22
38780;BME280;29273;49.962;9.768;2023-01-30T06:58:27;99888.97;;;5.13;57.00
38780;BME280;29273;49.962;9.768;2023-01-30T07:00:53;99897.69;;;5.13;57.00
38780;BME280;29273;49.962;9.768;2023-01-30T07:03:18;99874.22;;;5.12;57.25
38780;BME280;29273;49.962;9.768;2023-01-30T07:05:46;99888.81;;;5.14;57.33
38780;BME280;29273;49.962;9.768;2023-01-30T07:08:12;99906.38;;;5.14;57.54
38780;BME280;29273;49.962;9.768;2023-01-30T07:10:39;99887.84;;;5.15;57.48
38780;BME280;29273;49.962;9.768;2023-01-30T07:13:04;99886.19;;;5.14;57.36
38780;BME280;29273;49.962;9.768;2023-01-30T07:15:31;99884.72;;;5.12;57.54
38780;BME280;29273;49.962;9.768;2023-01-30T07:17:56;99879.63;;;5.10;57.87
38780;BME280;29273;49.962;9.768;2023-01-30T07:20:22;99896.03;;;5.12;57.37
38780;BME280;29273;49.962;9.768;2023-01-30T07:22:52;99888.66;;;5.16;57.25
38780;BME280;29273;49.962;9.768;2023-01-30T07:25:20;99882.09;;;5.12;57.55
38780;BME280;29273;49.962;9.768;2023-01-30T07:27:50;99874.38;;;5.10;57.75
38780;BME280;29273;49.962;9.768;2023-01-30T07:30:16;99887.19;;;5.05;58.03
38780;BME280;29273;49.962;9.768;2023-01-30T07:32:41;99897.69;;;5.05;58.37
38780;BME280;29273;49.962;9.768;2023-01-30T07:35:07;99912.44;;;5.06;58.37
38780;BME280;29273;49.962;9.768;2023-01-30T07:37:33;99904.75;;;5.05;58.43
38780;BME280;29273;49.962;9.768;2023-01-30T07:39:58;99899.50;;;5.05;58.38
38780;BME280;29273;49.962;9.768;2023-01-30T07:42:23;99893.56;;;5.03;58.75
38780;BME280;29273;49.962;9.768;2023-01-30T07:44:51;99888.47;;;5.01;58.74
38780;BME280;29273;49.962;9.768;2023-01-30T07:47:16;99880.59;;;5.01;58.77
38780;BME280;29273;49.962;9.768;2023-01-30T07:49:44;99881.78;;;4.98;58.94
38780;BME280;29273;49.962;9.768;2023-01-30T07:52:09;99883.38;;;4.99;58.83
38780;BME280;29273;49.962;9.768;2023-01-30T07:54:35;99893.88;;;4.99;58.66
38780;BME280;29273;49.962;9.768;2023-01-30T07:57:00;99900.47;;;4.95;59.24
38780;BME280;29273;49.962;9.768;2023-01-30T07:59:26;99897.84;;;4.95;58.93
38780;BME280;29273;49.962;9.768;2023-01-30T08:01:52;99897.84;;;4.95;59.12
38780;BME280;29273;49.962;9.768;2023-01-30T08:04:17;99892.44;;;4.97;58.89
38780;BME280;29273;49.962;9.768;2023-01-30T08:06:43;99894.09;;;4.98;59.05
38780;BME280;29273;49.962;9.768;2023-01-30T08:09:08;99895.06;;;4.97;59.12
38780;BME280;29273;49.962;9.768;2023-01-30T08:11:34;99888.47;;;5.01;58.86
38780;BME280;29273;49.962;9.768;2023-01-30T08:13:59;99885.03;;;5.00;58.93
38780;BME280;29273;49.962;9.768;2023-01-30T08:16:25;99883.75;;;5.05;58.65
38780;BME280;29273;49.962;9.768;2023-01-30T08:18:50;99877.34;;;5.07;58.85
38780;BME280;29273;49.962;9.768;2023-01-30T08:21:16;99874.72;;;5.07;58.92
38780;BME280;29273;49.962;9.768;2023-01-30T08:23:41;99876.03;;;5.11;58.70
38780;BME280;29273;49.962;9.768;2023-01-30T08:26:07;99868.50;;;5.16;58.26
38780;BME280;29273;49.962;9.768;2023-01-30T08:28:32;99864.84;;;5.17;58.37
38780;BME280;29273;49.962;9.768;2023-01-30T08:30:58;99863.06;;;5.18;58.19
38780;BME280;29273;49.962;9.768;2023-01-30T08:33:23;99866.03;;;5.23;58.19
38780;BME280;29273;49.962;9.768;2023-01-30T08:35:49;99877.19;;;5.25;58.19
38780;BME280;29273;49.962;9.768;2023-01-30T08:38:15;99875.19;;;5.27;58.24
38780;BME280;29273;49.962;9.768;2023-01-30T08:40:41;99879.97;;;5.32;58.20
38780;BME280;29273;49.962;9.768;2023-01-30T08:43:07;99885.22;;;5.32;58.60
38780;BME280;29273;49.962;9.768;2023-01-30T08:45:33;99880.59;;;5.34;58.31
38780;BME280;29273;49.962;9.768;2023-01-30T08:48:00;99881.25;;;5.36;58.20
38780;BME280;29273;49.962;9.768;2023-01-30T08:50:26;99875.19;;;5.35;58.28
38780;BME280;29273;49.962;9.768;2023-01-30T08:52:52;99875.03;;;5.37;58.64
38780;BME280;29273;49.962;9.768;2023-01-30T08:55:18;99869.44;;;5.32;58.67
38780;BME280;29273;49.962;9.768;2023-01-30T08:57:44;99877.81;;;5.35;58.59
38780;BME280;29273;49.962;9.768;2023-01-30T09:00:10;99884.72;;;5.36;58.69
38780;BME280;29273;49.962;9.768;2023-01-30T09:02:35;99870.75;;;5.36;58.69
38780;BME280;29273;49.962;9.768;2023-01-30T09:05:02;99863.03;;;5.34;58.55
38780;BME280;29273;49.962;9.768;2023-01-30T09:07:27;99861.56;;;5.32;58.67
38780;BME280;29273;49.962;9.768;2023-01-30T09:09:53;99845.81;;;5.32;58.68
38780;BME280;29273;49.962;9.768;2023-01-30T09:12:19;99847.28;;;5.34;58.67
38780;BME280;29273;49.962;9.768;2023-01-30T09:14:45;99856.16;;;5.33;58.77
38780;BME280;29273;49.962;9.768;2023-01-30T09:17:11;99841.03;;;5.35;58.77
38780;BME280;29273;49.962;9.768;2023-01-30T09:19:37;99835.97;;;5.34;58.64
38780;BME280;29273;49.962;9.768;2023-01-30T09:22:03;99832.34;;;5.35;58.44
38780;BME280;29273;49.962;9.768;2023-01-30T09:24:28;99814.63;;;5.37;58.57
38780;BME280;29273;49.962;9.768;2023-01-30T09:26:55;99821.34;;;5.40;58.64
38780;BME280;29273;49.962;9.768;2023-01-30T09:29:24;99819.22;;;5.35;58.57
38780;BME280;29273;49.962;9.768;2023-01-30T09:31:50;99812.81;;;5.37;58.65
38780;BME280;29273;49.962;9.768;2023-01-30T09:34:15;99816.91;;;5.40;58.56
38780;BME280;29273;49.962;9.768;2023-01-30T09:36:41;99816.75;;;5.42;58.63
38780;BME280;29273;49.962;9.768;2023-01-30T09:39:07;99810.66;;;5.41;58.56
38780;BME280;29273;49.962;9.768;2023-01-30T09:41:55;99816.41;;;5.45;58.32
38780;BME280;29273;49.962;9.768;2023-01-30T09:47:13;99804.41;;;5.50;58.45
38780;BME280;29273;49.962;9.768;2023-01-30T09:49:51;99800.13;;;5.49;58.39
38780;BME280;29273;49.962;9.768;2023-01-30T09:55:01;99798.50;;;5.56;58.33
38780;BME280;29273;49.962;9.768;2023-01-30T09:57:26;99788.16;;;5.55;58.42
38780;BME280;29273;49.962;9.768;2023-01-30T10:02:48;99775.47;;;5.67;57.94
38780;BME280;29273;49.962;9.768;2023-01-30T10:05:16;99780.56;;;5.68;57.98
38780;BME280;29273;49.962;9.768;2023-01-30T10:07:55;99804.50;;;5.73;58.07
38780;BME280;29273;49.962;9.768;2023-01-30T10:10:47;99807.94;;;5.74;57.89
38780;BME280;29273;49.962;9.768;2023-01-30T10:18:49;99805.75;;;5.86;57.65
38780;BME280;29273;49.962;9.768;2023-01-30T10:21:30;99806.75;;;5.85;57.70
38780;BME280;29273;49.962;9.768;2023-01-30T10:26:38;99804.09;;;5.93;57.49
38780;BME280;29273;49.962;9.768;2023-01-30T10:29:15;99800.78;;;5.99;57.16
38780;BME280;29273;49.962;9.768;2023-01-30T10:31:46;99804.09;;;6.01;57.32
38780;BME280;29273;49.962;9.768;2023-01-30T10:34:27;99793.22;;;6.04;57.22
38780;BME280;29273;49.962;9.768;2023-01-30T10:37:14;99812.75;;;6.10;57.37
38780;BME280;29273;49.962;9.768;2023-01-30T10:40:05;99799.44;;;6.11;57.14
38780;BME280;29273;49.962;9.768;2023-01-30T10:42:47;99804.81;;;6.18;57.23
38780;BME280;29273;49.962;9.768;2023-01-30T10:45:17;99803.63;;;6.21;57.31
38780;BME280;29273;49.962;9.768;2023-01-30T10:48:05;99783.78;;;6.18;57.34
38780;BME280;29273;49.962;9.768;2023-01-30T10:51:01;99809.88;;;6.28;57.11
38780;BME280;29273;49.962;9.768;2023-01-30T10:53:45;99807.53;;;6.33;57.16
38780;BME280;29273;49.962;9.768;2023-01-30T10:58:52;99806.66;;;6.41;56.96
38780;BME280;29273;49.962;9.768;2023-01-30T11:01:23;99817.16;;;6.41;57.16
38780;BME280;29273;49.962;9.768;2023-01-30T11:04:01;99819.44;;;6.44;57.01
38780;BME280;29273;49.962;9.768;2023-01-30T11:06:28;99827.69;;;6.41;57.05
38780;BME280;29273;49.962;9.768;2023-01-30T11:08:55;99819.63;;;6.42;57.11
38780;BME280;29273;49.962;9.768;2023-01-30T11:11:52;99832.09;;;6.48;56.63
38780;BME280;29273;49.962;9.768;2023-01-30T11:14:18;99816.34;;;6.40;57.41
38780;BME280;29273;49.962;9.768;2023-01-30T11:16:50;99822.72;;;6.46;57.21
38780;BME280;29273;49.962;9.768;2023-01-30T11:19:20;99797.53;;;6.52;57.19
38780;BME280;29273;49.962;9.768;2023-01-30T11:21:49;99815.78;;;6.53;57.24
38780;BME280;29273;49.962;9.768;2023-01-30T11:24:22;99815.72;;;6.61;57.05
38780;BME280;29273;49.962;9.768;2023-01-30T11:26:48;99827.41;;;6.59;57.17
38780;BME280;29273;49.962;9.768;2023-01-30T11:29:27;99830.34;;;6.64;56.93
38780;BME280;29273;49.962;9.768;2023-01-30T11:31:54;99830.00;;;6.67;57.40
38780;BME280;29273;49.962;9.768;2023-01-30T11:34:22;99824.03;;;6.73;57.44
38780;BME280;29273;49.962;9.768;2023-01-30T11:36:48;99830.28;;;6.72;57.60
38780;BME280;29273;49.962;9.768;2023-01-30T11:41:57;99819.97;;;6.85;57.13
38780;BME280;29273;49.962;9.768;2023-01-30T11:44:32;99811.38;;;6.92;57.13
38780;BME280;29273;49.962;9.768;2023-01-30T11:47:06;99804.94;;;6.94;57.27
38780;BME280;29273;49.962;9.768;2023-01-30T11:49:40;99808.06;;;6.98;57.28
38780;BME280;29273;49.962;9.768;2023-01-30T11:52:07;99798.97;;;7.00;57.41
38780;BME280;29273;49.962;9.768;2023-01-30T11:54:36;99801.53;;;7.09;57.38
38780;BME280;29273;49.962;9.768;2023-01-30T11:57:05;99817.59;;;7.14;57.42
38780;BME280;29273;49.962;9.768;2023-01-30T11:59:39;99832.34;;;7.23;57.15
38780;BME280;29273;49.962;9.768;2023-01-30T12:04:44;99802.63;;;7.44;56.79
38780;BME280;29273;49.962;9.768;2023-01-30T12:07:22;99787.75;;;7.51;56.43
38780;BME280;29273;49.962;9.768;2023-01-30T12:09:48;99780.47;;;7.53;55.96
38780;BME280;29273;49.962;9.768;2023-01-30T12:12:51;99776.47;;;7.57;55.30
38780;BME280;29273;49.962;9.768;2023-01-30T12:15:30;99771.47;;;7.63;55.12
38780;BME280;29273;49.962;9.768;2023-01-30T12:23:51;99787.75;;;7.66;54.98
38780;BME280;29273;49.962;9.768;2023-01-30T12:26:30;99779.66;;;7.68;54.87
38780;BME280;29273;49.962;9.768;2023-01-30T12:29:25;99771.47;;;7.63;54.88
38780;BME280;29273;49.962;9.768;2023-01-30T12:32:15;99761.22;;;7.53;54.80
38780;BME280;29273;49.962;9.768;2023-01-30T12:34:42;99758.59;;;7.53;55.00
38780;BME280;29273;49.962;9.768;2023-01-30T12:37:39;99752.94;;;7.56;55.00
38780;BME280;29273;49.962;9.768;2023-01-30T12:45:33;99774.31;;;7.46;55.18
38780;BME280;29273;49.962;9.768;2023-01-30T12:48:23;99773.03;;;7.42;55.41
38780;BME280;29273;49.962;9.768;2023-01-30T12:54:02;99772.84;;;7.44;55.90
38780;BME280;29273;49.962;9.768;2023-01-30T12:56:46;99776.28;;;7.44;56.36
38780;BME280;29273;49.962;9.768;2023-01-30T12:59:25;99762.50;;;7.42;56.62
38780;BME280;29273;49.962;9.768;2023-01-30T13:02:31;99766.09;;;7.41;56.52
38780;BME280;29273;49.962;9.768;2023-01-30T13:05:19;99768.75;;;7.41;56.60
38780;BME280;29273;49.962;9.768;2023-01-30T13:08:02;99769.41;;;7.43;56.56
38780;BME280;29273;49.962;9.768;2023-01-30T13:11:01;99779.66;;;7.38;56.50
38780;BME280;29273;49.962;9.768;2023-01-30T13:13:54;99781.47;;;7.37;56.24
38780;BME280;29273;49.962;9.768;2023-01-30T13:16:33;99790.22;;;7.38;56.10
38780;BME280;29273;49.962;9.768;2023-01-30T13:22:10;99799.72;;;7.39;56.11
38780;BME280;29273;49.962;9.768;2023-01-30T13:27:21;99797.53;;;7.43;56.42
38780;BME280;29273;49.962;9.768;2023-01-30T13:29:47;99812.53;;;7.42;56.51
38780;BME280;29273;49.962;9.768;2023-01-30T13:34:55;99812.00;;;7.47;56.82
38780;BME280;29273;49.962;9.768;2023-01-30T13:37:22;99797.53;;;7.43;56.90
38780;BME280;29273;49.962;9.768;2023-01-30T13:39:51;99801.84;;;7.44;56.79
38780;BME280;29273;49.962;9.768;2023-01-30T13:44:58;99812.91;;;7.39;57.66
38780;BME280;29273;49.962;9.768;2023-01-30T13:52:57;99792.19;;;7.36;57.98
38780;BME280;29273;49.962;9.768;2023-01-30T13:55:57;99772.41;;;7.40;57.34
38780;BME280;29273;49.962;9.768;2023-01-30T13:58:51;99784.75;;;7.39;57.10
38780;BME280;29273;49.962;9.768;2023-01-30T14:01:17;99785.75;;;7.38;57.57
38780;BME280;29273;49.962;9.768;2023-01-30T14:03:44;99791.66;;;7.40;57.45
38780;BME280;29273;49.962;9.768;2023-01-30T14:06:31;99789.81;;;7.41;56.94
38780;BME280;29273;49.962;9.768;2023-01-30T14:09:01;99799.81;;;7.46;57.39
38780;BME280;29273;49.962;9.768;2023-01-30T14:11:31;99791.75;;;7.47;57.77
38780;BME280;29273;49.962;9.768;2023-01-30T14:16:39;99808.66;;;7.53;57.64
38780;BME280;29273;49.962;9.768;2023-01-30T14:21:58;99806.13;;;7.59;57.76
38780;BME280;29273;49.962;9.768;2023-01-30T14:24:25;99810.19;;;7.62;57.72
38780;BME280;29273;49.962;9.768;2023-01-30T14:34:44;99844.09;;;7.80;56.60
38780;BME280;29273;49.962;9.768;2023-01-30T14:45:57;99835.00;;;7.83;56.06
38780;BME280;29273;49.962;9.768;2023-01-30T14:51:23;99847.00;;;7.85;55.76
38780;BME280;29273;49.962;9.768;2023-01-30T14:53:59;99862.47;;;7.88;55.92
38780;BME280;29273;49.962;9.768;2023-01-30T15:05:13;99873.19;;;7.87;55.60
38780;BME280;29273;49.962;9.768;2023-01-30T15:07:43;99880.66;;;7.83;56.03